Time;durP1;ratioP1;P1;durP2;ratioP2;P2;SDS_P1;SDS_P2;PMS_P1;PMS_P2;Temp;Humidity;BMP_temperature;BMP_pressure;BME280_temperature;BME280_humidity;BME280_pressure;Samples;Min_cycle;Max_cycle;Signal;HPM_P1;HPM_P2
2022/08/05 00:00:15;;;;;;;7.05;2.95;;;;;;;;;;5074951;28;20559;-46
2022/08/05 00:03:02;;;;;;;7.00;2.70;;;;;;;;;;5075027;28;20347;-44
2022/08/05 00:05:31;;;;;;;9.30;2.95;;;;;;;;;;5074762;28;20215;-47
2022/08/05 00:08:19;;;;;;;10.52;3.13;;;;;;;;;;5075440;28;20530;-44
2022/08/05 00:11:02;;;;;;;4.00;2.88;;;;;;;;;;5074518;28;20290;-46
2022/08/05 00:13:31;;;;;;;3.90;2.72;;;;;;;;;;5074592;28;20578;-47
2022/08/05 00:16:09;;;;;;;4.45;2.80;;;;;;;;;;5074810;28;20195;-48
2022/08/05 00:18:41;;;;;;;8.93;2.97;;;;;;;;;;5074444;28;20527;-48
2022/08/05 00:21:10;;;;;;;8.43;3.20;;;;;;;;;;5074945;28;20184;-48
2022/08/05 00:23:42;;;;;;;7.38;2.90;;;;;;;;;;5075037;28;20199;-45
2022/08/05 00:26:19;;;;;;;3.65;2.70;;;;;;;;;;5074630;28;20625;-45
2022/08/05 00:28:47;;;;;;;3.72;2.60;;;;;;;;;;5074553;28;20264;-47
2022/08/05 00:31:15;;;;;;;5.18;2.80;;;;;;;;;;5074299;28;20673;-45
2022/08/05 00:34:03;;;;;;;7.32;3.67;;;;;;;;;;5076958;28;20215;-47
2022/08/05 00:36:50;;;;;;;6.22;3.70;;;;;;;;;;5078742;28;20207;-44
2022/08/05 00:39:39;;;;;;;4.70;3.33;;;;;;;;;;5078416;28;20214;-47
2022/08/05 00:42:10;;;;;;;3.80;3.25;;;;;;;;;;5078420;28;20602;-44
2022/08/05 00:44:57;;;;;;;6.53;3.53;;;;;;;;;;5078569;28;20230;-47
2022/08/05 00:47:25;;;;;;;4.82;3.30;;;;;;;;;;5078057;28;20654;-48
2022/08/05 00:50:12;;;;;;;6.68;3.63;;;;;;;;;;5078494;28;20211;-48
2022/08/05 00:52:39;;;;;;;6.80;3.20;;;;;;;;;;5078151;28;20203;-48
2022/08/05 00:55:06;;;;;;;10.38;3.67;;;;;;;;;;5078284;28;20214;-48
2022/08/05 00:57:33;;;;;;;6.55;3.47;;;;;;;;;;5078271;28;20203;-44
2022/08/05 01:00:20;;;;;;;5.60;2.90;;;;;;;;;;5078101;28;20206;-44
2022/08/05 01:02:51;;;;;;;7.50;3.60;;;;;;;;;;5078327;28;20238;-46
2022/08/05 01:05:18;;;;;;;4.03;3.17;;;;;;;;;;5077680;28;20227;-46
2022/08/05 01:07:46;;;;;;;8.05;3.00;;;;;;;;;;5077654;28;20215;-43
2022/08/05 01:10:37;;;;;;;5.82;3.15;;;;;;;;;;5077868;28;20222;-43
2022/08/05 01:13:09;;;;;;;6.43;3.00;;;;;;;;;;5078477;28;20206;-47
2022/08/05 01:16:04;;;;;;;6.03;3.05;;;;;;;;;;5077683;28;20203;-48
2022/08/05 01:18:33;;;;;;;4.60;3.50;;;;;;;;;;5077074;28;20245;-46
2022/08/05 01:21:18;;;;;;;5.35;4.03;;;;;;;;;;5076738;28;20207;-49
2022/08/05 01:24:19;;;;;;;5.78;4.43;;;;;;;;;;5076579;28;20237;-46
2022/08/05 01:27:13;;;;;;;5.22;4.20;;;;;;;;;;5076695;28;20510;-46
2022/08/05 01:30:01;;;;;;;8.68;4.70;;;;;;;;;;5077879;28;20276;-45
2022/08/05 01:32:32;;;;;;;5.57;5.07;;;;;;;;;;5076783;28;20210;-46
2022/08/05 01:35:02;;;;;;;17.67;4.75;;;;;;;;;;5076723;28;20241;-48
2022/08/05 01:37:45;;;;;;;4.15;3.47;;;;;;;;;;5076339;28;20203;-46
2022/08/05 01:40:13;;;;;;;4.95;4.10;;;;;;;;;;5076687;28;20267;-47
2022/08/05 01:42:45;;;;;;;6.65;4.10;;;;;;;;;;5076705;28;20203;-47
2022/08/05 01:45:14;;;;;;;5.38;4.72;;;;;;;;;;5076294;28;20219;-44
2022/08/05 01:47:43;;;;;;;4.70;3.97;;;;;;;;;;5076496;28;20195;-47
2022/08/05 01:50:13;;;;;;;5.78;5.00;;;;;;;;;;5076233;28;20257;-48
2022/08/05 01:52:43;;;;;;;7.45;5.13;;;;;;;;;;5075990;28;20222;-49
2022/08/05 01:55:17;;;;;;;8.07;4.30;;;;;;;;;;5076399;28;20505;-45
2022/08/05 01:57:45;;;;;;;5.45;3.80;;;;;;;;;;5075954;28;20203;-44
2022/08/05 02:00:34;;;;;;;6.97;4.60;;;;;;;;;;5076383;28;20210;-43
2022/08/05 02:03:22;;;;;;;7.40;5.10;;;;;;;;;;5075840;28;20285;-44
2022/08/05 02:06:00;;;;;;;8.32;5.40;;;;;;;;;;5076135;28;20218;-47
2022/08/05 02:08:47;;;;;;;4.95;4.40;;;;;;;;;;5076616;28;20215;-48
2022/08/05 02:11:27;;;;;;;4.85;3.90;;;;;;;;;;5076762;28;20241;-45
2022/08/05 02:14:03;;;;;;;2.13;1.77;;;;;;;;;;5075715;28;20205;-45
2022/08/05 02:16:33;;;;;;;4.45;1.90;;;;;;;;;;5077033;28;20309;-45
2022/08/05 02:19:24;;;;;;;4.47;3.65;;;;;;;;;;5075551;28;20203;-46
2022/08/05 02:22:18;;;;;;;6.75;3.22;;;;;;;;;;5076908;28;20207;-44
2022/08/05 02:24:55;;;;;;;1.90;1.80;;;;;;;;;;5075473;28;20211;-47
2022/08/05 02:27:27;;;;;;;5.47;2.90;;;;;;;;;;5075467;28;20214;-44
2022/08/05 02:30:15;;;;;;;3.50;3.15;;;;;;;;;;5075140;28;20634;-48
2022/08/05 02:32:48;;;;;;;3.50;3.20;;;;;;;;;;5075238;28;20203;-46
2022/08/05 02:35:18;;;;;;;2.35;2.10;;;;;;;;;;5074935;28;20200;-47
2022/08/05 02:37:59;;;;;;;2.10;1.90;;;;;;;;;;5075716;28;20571;-48
2022/08/05 02:40:28;;;;;;;2.25;1.30;;;;;;;;;;5075851;28;20264;-47
2022/08/05 02:42:57;;;;;;;7.30;4.70;;;;;;;;;;5074697;28;20634;-47
2022/08/05 02:45:25;;;;;;;6.55;4.63;;;;;;;;;;5074862;28;20234;-47
2022/08/05 02:47:56;;;;;;;8.20;4.47;;;;;;;;;;5074922;28;20282;-47
2022/08/05 02:50:41;;;;;;;7.63;3.92;;;;;;;;;;5074720;28;20208;-43
2022/08/05 02:53:11;;;;;;;5.30;4.80;;;;;;;;;;5074849;28;20219;-43
2022/08/05 02:55:46;;;;;;;1.23;1.13;;;;;;;;;;5074643;28;20238;-44
2022/08/05 02:58:21;;;;;;;5.45;2.50;;;;;;;;;;5075564;28;20209;-44
2022/08/05 03:00:58;;;;;;;6.93;3.03;;;;;;;;;;5075250;28;20248;-44
2022/08/05 03:03:27;;;;;;;2.38;2.03;;;;;;;;;;5073476;28;20300;-49
2022/08/05 03:06:15;;;;;;;0.88;0.85;;;;;;;;;;5073486;28;20223;-49
2022/08/05 03:09:02;;;;;;;1.48;1.38;;;;;;;;;;5059966;28;20276;-47
2022/08/05 03:11:29;;;;;;;3.92;2.35;;;;;;;;;;5056955;28;20203;-47
2022/08/05 03:14:17;;;;;;;3.10;2.22;;;;;;;;;;5073463;28;20199;-46
2022/08/05 03:16:45;;;;;;;6.82;2.58;;;;;;;;;;5073299;28;20347;-45
2022/08/05 03:19:12;;;;;;;8.18;4.50;;;;;;;;;;5073440;28;20514;-48
2022/08/05 03:21:59;;;;;;;5.68;4.53;;;;;;;;;;5073263;28;20203;-44
2022/08/05 03:24:28;;;;;;;3.80;3.38;;;;;;;;;;5073399;28;20205;-46
2022/08/05 03:26:57;;;;;;;5.30;4.80;;;;;;;;;;5057391;28;20227;-45
2022/08/05 03:29:25;;;;;;;6.68;3.83;;;;;;;;;;5056916;28;20200;-45
2022/08/05 03:32:14;;;;;;;5.55;4.00;;;;;;;;;;5073511;28;20210;-46
2022/08/05 03:34:42;;;;;;;3.35;3.05;;;;;;;;;;5074508;28;20208;-44
2022/08/05 03:37:19;;;;;;;5.10;3.83;;;;;;;;;;5058849;28;20206;-43
2022/08/05 03:39:57;;;;;;;4.38;3.60;;;;;;;;;;5074819;28;20646;-43
2022/08/05 03:42:28;;;;;;;3.72;3.42;;;;;;;;;;5075232;28;20203;-43
2022/08/05 03:44:59;;;;;;;5.90;4.25;;;;;;;;;;5075491;28;20211;-44
2022/08/05 03:47:46;;;;;;;5.88;4.43;;;;;;;;;;5075040;28;20268;-44
2022/08/05 03:50:15;;;;;;;5.22;4.00;;;;;;;;;;5074826;28;20357;-45
2022/08/05 03:52:53;;;;;;;5.65;4.10;;;;;;;;;;5074832;28;20203;-45
2022/08/05 03:55:54;;;;;;;4.68;4.28;;;;;;;;;;5074305;28;20203;-45
2022/08/05 03:58:39;;;;;;;5.63;5.10;;;;;;;;;;5074381;28;20207;-47
2022/08/05 04:01:07;;;;;;;6.55;5.82;;;;;;;;;;5074003;28;20214;-43
2022/08/05 04:03:38;;;;;;;8.50;5.57;;;;;;;;;;5073802;28;20322;-49
2022/08/05 04:06:05;;;;;;;6.82;5.40;;;;;;;;;;5073648;28;20614;-44
2022/08/05 04:08:35;;;;;;;9.20;6.07;;;;;;;;;;5077220;28;20199;-43
2022/08/05 04:11:04;;;;;;;7.80;6.55;;;;;;;;;;5080746;28;20203;-47
2022/08/05 04:13:31;;;;;;;9.57;6.38;;;;;;;;;;5080652;28;20318;-46
2022/08/05 04:16:17;;;;;;;6.47;5.72;;;;;;;;;;5080702;28;20213;-43
2022/08/05 04:18:58;;;;;;;8.98;6.25;;;;;;;;;;5082179;28;20191;-44
2022/08/05 04:21:26;;;;;;;10.80;6.40;;;;;;;;;;5081360;28;20241;-44
2022/08/05 04:24:13;;;;;;;7.53;6.82;;;;;;;;;;5081268;28;20211;-48
2022/08/05 04:26:49;;;;;;;7.57;6.03;;;;;;;;;;5081635;28;20211;-48
2022/08/05 04:29:15;;;;;;;10.75;6.18;;;;;;;;;;5081610;28;20280;-48
2022/08/05 04:31:42;;;;;;;7.72;6.25;;;;;;;;;;5081105;28;20645;-46
2022/08/05 04:34:12;;;;;;;7.72;5.95;;;;;;;;;;5081180;28;20272;-43
2022/08/05 04:36:59;;;;;;;10.13;6.38;;;;;;;;;;5081250;28;20245;-47
2022/08/05 04:39:26;;;;;;;8.35;6.32;;;;;;;;;;5081405;28;20199;-46
2022/08/05 04:41:53;;;;;;;6.80;5.97;;;;;;;;;;5081466;28;20200;-45
2022/08/05 04:44:21;;;;;;;9.85;6.07;;;;;;;;;;5081245;28;20202;-47
2022/08/05 04:46:57;;;;;;;6.95;5.90;;;;;;;;;;5081015;28;20237;-43
2022/08/05 04:49:26;;;;;;;6.35;5.78;;;;;;;;;;5080881;28;20199;-47
2022/08/05 04:52:13;;;;;;;9.43;6.68;;;;;;;;;;5081374;28;20211;-48
2022/08/05 04:54:41;;;;;;;7.72;5.75;;;;;;;;;;5081320;28;20203;-48
2022/08/05 04:57:08;;;;;;;7.57;5.68;;;;;;;;;;5081004;28;20202;-45
2022/08/05 04:59:35;;;;;;;9.35;5.60;;;;;;;;;;5081038;28;20207;-45
2022/08/05 05:02:05;;;;;;;7.00;5.85;;;;;;;;;;5080729;28;20200;-44
2022/08/05 05:04:52;;;;;;;7.22;5.28;;;;;;;;;;5080924;28;20208;-44
2022/08/05 05:07:28;;;;;;;6.38;5.78;;;;;;;;;;5081291;28;20630;-45
2022/08/05 05:10:03;;;;;;;8.80;5.88;;;;;;;;;;5080832;28;20191;-46
2022/08/05 05:12:30;;;;;;;7.63;5.22;;;;;;;;;;5080856;28;20638;-45
2022/08/05 05:14:57;;;;;;;6.15;5.55;;;;;;;;;;5081012;28;20314;-43
2022/08/05 05:17:24;;;;;;;9.63;5.90;;;;;;;;;;5080690;28;20650;-46
2022/08/05 05:20:12;;;;;;;9.63;5.40;;;;;;;;;;5078054;28;20233;-48
2022/08/05 05:22:40;;;;;;;6.90;5.47;;;;;;;;;;5077881;28;20199;-46
2022/08/05 05:25:11;;;;;;;8.85;6.10;;;;;;;;;;5078206;28;20195;-44
2022/08/05 05:27:43;;;;;;;9.27;5.95;;;;;;;;;;5077925;28;20206;-47
2022/08/05 05:30:22;;;;;;;7.00;5.13;;;;;;;;;;5077255;28;20219;-47
2022/08/05 05:32:59;;;;;;;10.43;5.63;;;;;;;;;;5077568;28;20203;-48
2022/08/05 05:35:43;;;;;;;11.27;5.68;;;;;;;;;;5092828;28;20225;-50
2022/08/05 05:38:11;;;;;;;9.05;5.63;;;;;;;;;;5077764;28;20248;-50
2022/08/05 05:40:40;;;;;;;6.55;5.35;;;;;;;;;;5077030;28;20206;-48
2022/08/05 05:43:18;;;;;;;9.85;5.43;;;;;;;;;;5077315;28;20199;-48
2022/08/05 05:46:05;;;;;;;12.77;5.63;;;;;;;;;;5077364;28;20235;-48
2022/08/05 05:48:42;;;;;;;13.45;6.35;;;;;;;;;;5076932;28;20611;-46
2022/08/05 05:51:10;;;;;;;10.27;5.28;;;;;;;;;;5077261;28;20195;-45
2022/08/05 05:53:42;;;;;;;9.32;5.97;;;;;;;;;;5077469;28;20221;-48
2022/08/05 05:56:26;;;;;;;10.82;5.85;;;;;;;;;;5076805;28;20212;-45
2022/08/05 05:59:01;;;;;;;7.65;5.40;;;;;;;;;;5077153;28;20230;-45
2022/08/05 06:01:33;;;;;;;7.70;5.15;;;;;;;;;;5077016;28;20199;-47
2022/08/05 06:04:08;;;;;;;6.80;5.45;;;;;;;;;;5075978;28;20234;-46
2022/08/05 06:06:43;;;;;;;6.90;5.32;;;;;;;;;;5077034;28;20272;-47
2022/08/05 06:09:15;;;;;;;8.98;5.72;;;;;;;;;;5077094;28;20206;-48
2022/08/05 06:11:53;;;;;;;8.98;5.65;;;;;;;;;;5077109;28;20206;-44
2022/08/05 06:14:32;;;;;;;5.95;5.30;;;;;;;;;;5076833;28;20220;-44
2022/08/05 06:17:01;;;;;;;8.05;5.32;;;;;;;;;;5076918;28;20219;-45
2022/08/05 06:19:48;;;;;;;7.72;5.35;;;;;;;;;;5076766;28;20522;-47
2022/08/05 06:22:27;;;;;;;10.52;5.50;;;;;;;;;;5076288;28;20529;-45
2022/08/05 06:24:54;;;;;;;7.00;4.93;;;;;;;;;;5076465;28;20299;-47
2022/08/05 06:27:21;;;;;;;9.25;5.43;;;;;;;;;;5076509;28;20219;-46
2022/08/05 06:30:14;;;;;;;9.82;5.85;;;;;;;;;;5076876;28;20544;-46
2022/08/05 06:32:46;;;;;;;8.15;4.80;;;;;;;;;;5076334;28;20203;-46
2022/08/05 06:35:13;;;;;;;9.50;5.82;;;;;;;;;;5076621;28;20214;-47
2022/08/05 06:38:00;;;;;;;10.90;5.03;;;;;;;;;;5075940;28;20634;-48
2022/08/05 06:40:38;;;;;;;6.00;5.40;;;;;;;;;;5076477;28;20203;-44
2022/08/05 06:43:11;;;;;;;6.07;5.15;;;;;;;;;;5076387;28;20213;-44
2022/08/05 06:45:58;;;;;;;6.18;5.45;;;;;;;;;;5075783;28;20242;-46
2022/08/05 06:48:33;;;;;;;9.57;5.47;;;;;;;;;;5075775;28;20219;-45
2022/08/05 06:51:21;;;;;;;7.18;4.90;;;;;;;;;;5074948;28;20543;-49
2022/08/05 06:54:00;;;;;;;5.40;4.80;;;;;;;;;;5076002;28;20302;-46
2022/08/05 06:56:29;;;;;;;5.15;4.65;;;;;;;;;;5075956;28;20215;-45
2022/08/05 06:59:05;;;;;;;5.68;4.55;;;;;;;;;;5075173;28;20218;-44
2022/08/05 07:01:38;;;;;;;6.65;5.38;;;;;;;;;;5075510;28;20187;-47
2022/08/05 07:04:08;;;;;;;10.57;4.88;;;;;;;;;;5075503;28;20246;-46
2022/08/05 07:06:35;;;;;;;7.80;4.60;;;;;;;;;;5075587;28;20539;-47
2022/08/05 07:09:03;;;;;;;8.85;4.85;;;;;;;;;;5075976;28;20199;-44
2022/08/05 07:11:34;;;;;;;8.43;5.30;;;;;;;;;;5075549;28;20203;-45
2022/08/05 07:17:00;;;;;;;5.78;4.63;;;;;;;;;;5075409;28;20264;-49
2022/08/05 07:19:49;;;;;;;6.80;4.70;;;;;;;;;;5075192;28;20626;-43
2022/08/05 07:22:36;;;;;;;10.77;4.85;;;;;;;;;;5075263;28;20211;-47
2022/08/05 07:25:04;;;;;;;5.32;4.30;;;;;;;;;;5075410;28;20213;-43
2022/08/05 07:27:52;;;;;;;8.00;4.88;;;;;;;;;;5075254;28;20280;-43
2022/08/05 07:30:35;;;;;;;6.15;4.25;;;;;;;;;;5075048;28;20268;-43
2022/08/05 07:33:08;;;;;;;7.18;4.43;;;;;;;;;;5075110;28;20207;-48
2022/08/05 07:35:41;;;;;;;5.05;4.45;;;;;;;;;;5075218;28;20191;-48
2022/08/05 07:38:28;;;;;;;7.45;4.90;;;;;;;;;;5075872;28;20249;-43
2022/08/05 07:41:05;;;;;;;7.95;4.40;;;;;;;;;;5075243;28;20312;-47
2022/08/05 07:43:53;;;;;;;8.93;4.65;;;;;;;;;;5074499;28;20207;-45
2022/08/05 07:46:23;;;;;;;5.57;4.53;;;;;;;;;;5074936;28;20253;-43
2022/08/05 07:48:53;;;;;;;8.30;4.32;;;;;;;;;;5074732;28;20203;-43
2022/08/05 07:51:36;;;;;;;6.03;4.45;;;;;;;;;;5075005;28;20210;-47
2022/08/05 07:54:20;;;;;;;9.18;4.50;;;;;;;;;;5075161;28;20230;-47
2022/08/05 07:56:53;;;;;;;9.77;4.30;;;;;;;;;;5074993;28;20187;-44
2022/08/05 07:59:40;;;;;;;7.97;4.30;;;;;;;;;;5074655;28;20183;-45
2022/08/05 08:02:10;;;;;;;7.07;4.60;;;;;;;;;;5074704;28;20591;-47
2022/08/05 08:04:45;;;;;;;8.52;4.50;;;;;;;;;;5075166;28;20235;-44
2022/08/05 08:07:13;;;;;;;4.93;4.20;;;;;;;;;;5074724;28;20234;-46
2022/08/05 08:09:41;;;;;;;5.20;4.13;;;;;;;;;;5074558;28;20226;-47
2022/08/05 08:12:09;;;;;;;6.95;4.80;;;;;;;;;;5074788;28;20326;-43
2022/08/05 08:14:56;;;;;;;6.32;4.63;;;;;;;;;;5074902;28;20203;-46
2022/08/05 08:17:28;;;;;;;7.60;4.10;;;;;;;;;;5074946;28;20203;-46
2022/08/05 08:19:56;;;;;;;6.90;4.35;;;;;;;;;;5074754;28;20257;-44
2022/08/05 08:22:55;;;;;;;5.32;4.32;;;;;;;;;;5074485;28;20203;-47
2022/08/05 08:25:22;;;;;;;6.93;4.03;;;;;;;;;;5075012;28;20195;-46
2022/08/05 08:28:10;;;;;;;8.63;4.57;;;;;;;;;;5074602;28;20738;-47
2022/08/05 08:30:57;;;;;;;6.65;4.10;;;;;;;;;;5074169;28;20203;-44
2022/08/05 08:33:24;;;;;;;5.65;4.18;;;;;;;;;;5074705;28;20214;-47
2022/08/05 08:35:53;;;;;;;9.10;4.28;;;;;;;;;;5074425;28;20207;-49
2022/08/05 08:38:40;;;;;;;5.05;3.83;;;;;;;;;;5074502;28;20202;-48
2022/08/05 08:41:10;;;;;;;5.55;4.15;;;;;;;;;;5074689;28;20200;-47
2022/08/05 08:43:40;;;;;;;7.57;4.57;;;;;;;;;;5074688;28;20234;-49
2022/08/05 08:46:30;;;;;;;6.38;4.30;;;;;;;;;;5073782;28;20211;-47
2022/08/05 08:48:58;;;;;;;9.93;4.43;;;;;;;;;;5074443;28;20191;-47
2022/08/05 08:51:56;;;;;;;8.68;4.22;;;;;;;;;;5074417;28;20199;-49
2022/08/05 08:54:31;;;;;;;6.88;4.10;;;;;;;;;;5075048;28;20210;-48
2022/08/05 08:56:59;;;;;;;6.10;4.03;;;;;;;;;;5078306;28;20218;-45
2022/08/05 08:59:26;;;;;;;9.52;4.43;;;;;;;;;;5077902;28;20203;-50
2022/08/05 09:02:04;;;;;;;8.43;3.90;;;;;;;;;;5078686;28;20210;-46
2022/08/05 09:04:36;;;;;;;5.55;3.75;;;;;;;;;;5077966;28;20644;-45
2022/08/05 09:07:23;;;;;;;9.50;4.13;;;;;;;;;;5077821;28;20223;-47
2022/08/05 09:09:55;;;;;;;8.98;4.38;;;;;;;;;;5077914;28;20188;-45
2022/08/05 09:12:22;;;;;;;8.60;4.63;;;;;;;;;;5077014;28;20227;-45
2022/08/05 09:14:53;;;;;;;6.53;4.10;;;;;;;;;;5078236;28;20215;-46
2022/08/05 09:17:32;;;;;;;6.93;3.92;;;;;;;;;;5076793;28;20653;-47
2022/08/05 09:20:10;;;;;;;7.65;4.25;;;;;;;;;;5077631;28;20207;-44
2022/08/05 09:23:10;;;;;;;4.70;3.88;;;;;;;;;;5078118;28;20581;-46
2022/08/05 09:25:50;;;;;;;8.48;4.45;;;;;;;;;;5077374;28;20257;-49
2022/08/05 09:28:31;;;;;;;7.50;4.10;;;;;;;;;;5077524;28;20235;-43
2022/08/05 09:31:11;;;;;;;5.63;4.13;;;;;;;;;;5077249;28;20200;-47
2022/08/05 09:34:06;;;;;;;6.57;4.18;;;;;;;;;;5077526;28;20333;-46
2022/08/05 09:36:42;;;;;;;4.53;4.10;;;;;;;;;;5077494;28;20183;-45
2022/08/05 09:39:23;;;;;;;4.25;3.75;;;;;;;;;;5077854;28;20214;-44
2022/08/05 09:42:05;;;;;;;5.57;4.47;;;;;;;;;;5077195;28;20203;-46
2022/08/05 09:44:41;;;;;;;7.22;4.60;;;;;;;;;;5077510;28;20200;-49
2022/08/05 09:47:22;;;;;;;7.00;4.10;;;;;;;;;;5077010;28;20241;-47
2022/08/05 09:49:51;;;;;;;4.13;3.72;;;;;;;;;;5076954;28;20191;-47
2022/08/05 09:52:29;;;;;;;5.55;4.03;;;;;;;;;;5077376;28;20184;-47
2022/08/05 09:55:05;;;;;;;4.43;3.95;;;;;;;;;;5077163;28;20199;-48
2022/08/05 09:57:52;;;;;;;5.05;4.20;;;;;;;;;;5077071;28;20520;-44
2022/08/05 10:00:26;;;;;;;7.57;4.20;;;;;;;;;;5077507;28;20215;-46
2022/08/05 10:02:55;;;;;;;4.55;4.10;;;;;;;;;;5076984;28;20254;-49
2022/08/05 10:05:26;;;;;;;5.72;4.28;;;;;;;;;;5076441;28;20531;-48
2022/08/05 10:08:03;;;;;;;7.15;4.13;;;;;;;;;;5076451;28;20657;-44
2022/08/05 10:10:50;;;;;;;7.60;3.90;;;;;;;;;;5076861;28;20199;-45
2022/08/05 10:13:26;;;;;;;5.20;3.95;;;;;;;;;;5076648;28;20622;-48
2022/08/05 10:16:34;;;;;;;8.43;4.45;;;;;;;;;;5076732;28;20268;-47
2022/08/05 10:19:18;;;;;;;4.90;4.07;;;;;;;;;;5076659;28;20425;-47
2022/08/05 10:21:58;;;;;;;4.93;4.25;;;;;;;;;;5076923;28;20218;-44
2022/08/05 10:24:25;;;;;;;6.45;4.43;;;;;;;;;;5076582;28;20265;-47
2022/08/05 10:26:55;;;;;;;7.40;4.45;;;;;;;;;;5075437;28;20727;-45
2022/08/05 10:29:28;;;;;;;8.45;4.00;;;;;;;;;;5076825;28;20198;-47
2022/08/05 10:32:15;;;;;;;8.00;4.13;;;;;;;;;;5076791;28;20523;-48
2022/08/05 10:35:03;;;;;;;7.13;4.72;;;;;;;;;;5076213;28;20634;-44
2022/08/05 10:37:32;;;;;;;4.70;4.20;;;;;;;;;;5076141;28;20648;-44
2022/08/05 10:40:37;;;;;;;5.60;4.13;;;;;;;;;;5076022;28;20191;-47
2022/08/05 10:43:24;;;;;;;11.25;4.22;;;;;;;;;;5076324;28;20512;-49
2022/08/05 10:46:07;;;;;;;5.13;4.32;;;;;;;;;;5075463;28;20527;-44
2022/08/05 10:48:39;;;;;;;5.88;3.80;;;;;;;;;;5075839;28;20650;-47
2022/08/05 10:51:24;;;;;;;13.98;4.78;;;;;;;;;;5075941;28;20270;-44
2022/08/05 10:53:59;;;;;;;6.43;4.32;;;;;;;;;;5075872;28;20214;-46
2022/08/05 10:56:43;;;;;;;6.95;4.40;;;;;;;;;;5075693;28;20634;-49
2022/08/05 10:59:18;;;;;;;8.13;4.57;;;;;;;;;;5075921;28;20199;-45
2022/08/05 11:02:12;;;;;;;4.43;3.95;;;;;;;;;;5075829;28;20268;-48
2022/08/05 11:05:03;;;;;;;5.38;3.92;;;;;;;;;;5076027;28;20227;-46
2022/08/05 11:07:31;;;;;;;8.80;3.88;;;;;;;;;;5076063;28;20215;-47
2022/08/05 11:10:22;;;;;;;5.78;4.05;;;;;;;;;;5075595;28;20640;-49
2022/08/05 11:12:56;;;;;;;5.60;3.95;;;;;;;;;;5076025;28;20260;-49
2022/08/05 11:15:31;;;;;;;7.60;4.15;;;;;;;;;;5075591;28;20316;-47
2022/08/05 11:18:26;;;;;;;5.90;4.05;;;;;;;;;;5074889;28;20211;-44
2022/08/05 11:20:58;;;;;;;7.93;4.53;;;;;;;;;;5075543;28;20207;-48
2022/08/05 11:23:26;;;;;;;6.75;4.70;;;;;;;;;;5075406;28;20211;-45
2022/08/05 11:26:17;;;;;;;9.88;4.57;;;;;;;;;;5075784;28;20503;-45
2022/08/05 11:29:02;;;;;;;4.93;4.35;;;;;;;;;;5074348;28;20673;-44
2022/08/05 11:31:40;;;;;;;8.82;4.22;;;;;;;;;;5075250;28;20199;-46
2022/08/05 11:34:40;;;;;;;7.80;3.53;;;;;;;;;;5075439;28;20192;-45
2022/08/05 11:37:53;;;;;;;6.82;4.50;;;;;;;;;;5075735;28;20207;-49
2022/08/05 11:41:02;;;;;;;4.82;3.90;;;;;;;;;;5074277;28;20215;-47
2022/08/05 11:44:00;;;;;;;4.40;3.78;;;;;;;;;;5075129;28;20203;-46
2022/08/05 11:46:39;;;;;;;11.18;4.45;;;;;;;;;;5075098;28;20223;-49
2022/08/05 11:49:26;;;;;;;5.90;3.95;;;;;;;;;;5074910;28;20210;-46
2022/08/05 11:51:54;;;;;;;6.85;4.25;;;;;;;;;;5075079;28;20204;-48
2022/08/05 11:54:28;;;;;;;7.15;4.15;;;;;;;;;;5074904;28;20215;-48
2022/08/05 11:57:02;;;;;;;9.02;4.03;;;;;;;;;;5075199;28;20202;-43
2022/08/05 11:59:48;;;;;;;8.90;4.30;;;;;;;;;;5075197;28;20276;-46
2022/08/05 12:02:16;;;;;;;8.85;4.05;;;;;;;;;;5075040;28;20203;-45
2022/08/05 12:04:57;;;;;;;4.78;3.60;;;;;;;;;;5074563;28;20252;-50
2022/08/05 12:07:32;;;;;;;8.18;4.25;;;;;;;;;;5074502;28;20223;-43
2022/08/05 12:10:20;;;;;;;7.47;4.07;;;;;;;;;;5075169;28;20218;-44
2022/08/05 12:12:48;;;;;;;7.60;3.80;;;;;;;;;;5074249;28;20199;-48
2022/08/05 12:15:25;;;;;;;6.20;3.92;;;;;;;;;;5074541;28;20203;-44
2022/08/05 12:18:04;;;;;;;7.35;3.80;;;;;;;;;;5074607;28;20605;-46
2022/08/05 12:20:38;;;;;;;8.05;4.22;;;;;;;;;;5074740;28;20199;-46
2022/08/05 12:23:08;;;;;;;9.25;4.50;;;;;;;;;;5074888;28;20547;-45
2022/08/05 12:25:49;;;;;;;5.07;3.95;;;;;;;;;;5074668;28;20522;-46
2022/08/05 12:28:49;;;;;;;4.35;3.90;;;;;;;;;;5075036;28;20242;-43
2022/08/05 12:31:16;;;;;;;4.05;3.60;;;;;;;;;;5056864;28;20200;-47
2022/08/05 12:34:06;;;;;;;4.82;3.90;;;;;;;;;;5056948;28;20207;-48
2022/08/05 12:36:34;;;;;;;5.05;4.03;;;;;;;;;;5040169;28;20714;-44
2022/08/05 12:39:03;;;;;;;4.72;4.20;;;;;;;;;;5040337;28;20270;-46
2022/08/05 12:41:35;;;;;;;11.23;5.03;;;;;;;;;;5056700;28;20200;-48
2022/08/05 12:44:11;;;;;;;5.07;3.80;;;;;;;;;;5056634;28;20230;-48
2022/08/05 12:46:41;;;;;;;4.65;4.15;;;;;;;;;;5056494;28;20690;-48
2022/08/05 12:49:16;;;;;;;10.15;4.20;;;;;;;;;;5056602;28;20254;-46
2022/08/05 12:51:56;;;;;;;5.38;4.22;;;;;;;;;;5040363;28;20204;-49
2022/08/05 12:54:46;;;;;;;5.82;5.07;;;;;;;;;;5056264;28;20207;-46
2022/08/05 12:57:16;;;;;;;10.43;4.05;;;;;;;;;;5056640;28;20254;-48
2022/08/05 12:59:47;;;;;;;5.00;4.50;;;;;;;;;;5056431;28;20196;-45
2022/08/05 13:02:34;;;;;;;8.73;4.53;;;;;;;;;;5056234;28;20569;-49
2022/08/05 13:05:05;;;;;;;6.35;4.10;;;;;;;;;;5056197;28;20550;-50
2022/08/05 13:07:31;;;;;;;7.35;4.13;;;;;;;;;;5072827;28;20215;-45
2022/08/05 13:10:19;;;;;;;7.60;4.40;;;;;;;;;;5078320;28;20580;-46
2022/08/05 13:12:47;;;;;;;6.20;4.50;;;;;;;;;;5077874;28;20234;-47
2022/08/05 13:15:30;;;;;;;6.57;4.35;;;;;;;;;;5077791;28;20202;-47
2022/08/05 13:18:17;;;;;;;6.15;4.45;;;;;;;;;;5077750;28;20207;-49
2022/08/05 13:20:47;;;;;;;10.02;4.40;;;;;;;;;;5077487;28;20199;-48
2022/08/05 13:23:16;;;;;;;7.63;4.25;;;;;;;;;;5077594;28;20261;-45
2022/08/05 13:25:50;;;;;;;8.10;4.60;;;;;;;;;;5077509;28;20204;-44
2022/08/05 13:28:27;;;;;;;6.22;4.00;;;;;;;;;;5077341;28;20309;-47
2022/08/05 13:30:54;;;;;;;6.38;4.03;;;;;;;;;;5077288;28;20618;-45
2022/08/05 13:33:23;;;;;;;6.38;4.05;;;;;;;;;;5077531;28;20585;-47
2022/08/05 13:36:12;;;;;;;10.95;4.25;;;;;;;;;;5077471;28;20221;-50
2022/08/05 13:38:40;;;;;;;4.82;4.13;;;;;;;;;;5077175;28;20783;-48
2022/08/05 13:41:10;;;;;;;9.55;4.72;;;;;;;;;;5076558;28;20199;-46
2022/08/05 13:43:37;;;;;;;11.88;4.30;;;;;;;;;;5077151;28;20637;-49
2022/08/05 13:46:24;;;;;;;4.70;4.05;;;;;;;;;;5077235;28;20207;-47
2022/08/05 13:49:11;;;;;;;5.40;4.32;;;;;;;;;;5077609;28;20246;-48
2022/08/05 13:51:40;;;;;;;6.35;4.68;;;;;;;;;;5076871;28;20203;-48
2022/08/05 13:54:14;;;;;;;7.40;4.57;;;;;;;;;;5077066;28;20199;-48
2022/08/05 13:56:43;;;;;;;6.82;4.65;;;;;;;;;;5076954;28;20221;-48
2022/08/05 13:59:23;;;;;;;7.22;4.32;;;;;;;;;;5077175;28;20272;-46
2022/08/05 14:01:54;;;;;;;5.30;4.30;;;;;;;;;;5076786;28;20625;-46
2022/08/05 14:07:31;;;;;;;5.05;4.35;;;;;;;;;;5077012;28;20615;-46
2022/08/05 14:10:22;;;;;;;5.97;4.70;;;;;;;;;;5076834;28;20202;-48
2022/08/05 14:12:57;;;;;;;5.72;4.68;;;;;;;;;;5076833;28;20214;-45
2022/08/05 14:15:26;;;;;;;6.22;4.10;;;;;;;;;;5076723;28;20207;-44
2022/08/05 14:18:13;;;;;;;8.65;4.45;;;;;;;;;;5076378;28;20199;-46
2022/08/05 14:20:49;;;;;;;5.63;4.32;;;;;;;;;;5076677;28;20218;-48
2022/08/05 14:23:21;;;;;;;5.38;4.45;;;;;;;;;;5077073;28;20210;-49
2022/08/05 14:25:54;;;;;;;6.57;4.32;;;;;;;;;;5076644;28;20192;-46
2022/08/05 14:28:27;;;;;;;5.03;4.53;;;;;;;;;;5076473;28;20594;-48
2022/08/05 14:30:59;;;;;;;9.27;4.50;;;;;;;;;;5076378;28;20207;-47
2022/08/05 14:33:26;;;;;;;4.72;4.15;;;;;;;;;;5076887;28;20207;-46
2022/08/05 14:36:13;;;;;;;4.90;4.25;;;;;;;;;;5076419;28;20210;-49
2022/08/05 14:38:40;;;;;;;5.05;4.22;;;;;;;;;;5076321;28;20207;-45
2022/08/05 14:41:07;;;;;;;5.18;4.57;;;;;;;;;;5076123;28;20215;-48
2022/08/05 14:43:36;;;;;;;7.22;4.60;;;;;;;;;;5076181;28;20203;-45
2022/08/05 14:46:24;;;;;;;8.50;4.60;;;;;;;;;;5076225;28;20191;-47
2022/08/05 14:49:00;;;;;;;5.30;4.43;;;;;;;;;;5076208;28;20223;-44
2022/08/05 14:51:32;;;;;;;6.40;4.72;;;;;;;;;;5075673;28;20207;-47
2022/08/05 14:54:00;;;;;;;6.30;4.47;;;;;;;;;;5074761;28;20199;-46
2022/08/05 14:56:47;;;;;;;6.57;4.32;;;;;;;;;;5075747;28;20518;-49
2022/08/05 14:59:17;;;;;;;5.55;4.60;;;;;;;;;;5075579;28;20207;-45
2022/08/05 15:01:47;;;;;;;5.10;4.40;;;;;;;;;;5075718;28;20219;-44
2022/08/05 15:04:19;;;;;;;8.23;4.80;;;;;;;;;;5075724;28;20309;-48
2022/08/05 15:06:49;;;;;;;8.65;5.18;;;;;;;;;;5075775;28;20214;-47
2022/08/05 15:09:18;;;;;;;5.45;4.70;;;;;;;;;;5075589;28;20321;-49
2022/08/05 15:12:05;;;;;;;8.18;4.15;;;;;;;;;;5075802;28;20691;-47
2022/08/05 15:14:35;;;;;;;5.32;3.95;;;;;;;;;;5075515;28;20211;-46
2022/08/05 15:17:19;;;;;;;6.78;4.63;;;;;;;;;;5075933;28;20219;-45
2022/08/05 15:20:10;;;;;;;5.53;4.45;;;;;;;;;;5075754;28;20279;-49
2022/08/05 15:22:46;;;;;;;5.00;4.50;;;;;;;;;;5075577;28;20647;-45
2022/08/05 15:25:21;;;;;;;6.30;4.60;;;;;;;;;;5075939;28;20202;-48
2022/08/05 15:28:09;;;;;;;6.55;4.85;;;;;;;;;;5075467;28;20227;-46
2022/08/05 15:30:42;;;;;;;9.95;4.35;;;;;;;;;;5075385;28;20676;-50
2022/08/05 15:33:11;;;;;;;4.93;4.18;;;;;;;;;;5075307;28;20199;-43
2022/08/05 15:35:58;;;;;;;7.13;3.80;;;;;;;;;;5075392;28;20214;-45
2022/08/05 15:38:31;;;;;;;11.82;4.88;;;;;;;;;;5075194;28;20617;-47
2022/08/05 15:41:06;;;;;;;5.65;4.15;;;;;;;;;;5075211;28;20226;-44
2022/08/05 15:43:51;;;;;;;5.82;4.53;;;;;;;;;;5075757;28;20179;-49
2022/08/05 15:46:22;;;;;;;6.40;4.85;;;;;;;;;;5074903;28;20199;-48